sensor_id;sensor_type;location;lat;lon;timestamp;temperature;humidity
25138;DHT22;13112;50.986;4.354;2023-02-27T00:01:24;1.90;99.90
25138;DHT22;13112;50.986;4.354;2023-02-27T00:03:49;1.90;99.90
25138;DHT22;13112;50.986;4.354;2023-02-27T00:06:15;1.80;99.90
25138;DHT22;13112;50.986;4.354;2023-02-27T00:08:42;1.90;99.90
25138;DHT22;13112;50.986;4.354;2023-02-27T00:11:08;1.90;99.90
25138;DHT22;13112;50.986;4.354;2023-02-27T00:13:34;1.90;99.90
25138;DHT22;13112;50.986;4.354;2023-02-27T00:16:00;1.90;99.90
25138;DHT22;13112;50.986;4.354;2023-02-27T00:18:26;1.80;99.90
25138;DHT22;13112;50.986;4.354;2023-02-27T00:20:51;1.70;99.90
25138;DHT22;13112;50.986;4.354;2023-02-27T00:23:17;1.80;99.90
25138;DHT22;13112;50.986;4.354;2023-02-27T00:25:43;1.70;99.90
25138;DHT22;13112;50.986;4.354;2023-02-27T00:28:09;1.70;99.90
25138;DHT22;13112;50.986;4.354;2023-02-27T00:30:34;1.80;99.90
25138;DHT22;13112;50.986;4.354;2023-02-27T00:33:00;1.70;99.90
25138;DHT22;13112;50.986;4.354;2023-02-27T00:35:26;1.70;99.90
25138;DHT22;13112;50.986;4.354;2023-02-27T00:37:51;1.70;99.90
25138;DHT22;13112;50.986;4.354;2023-02-27T00:40:17;1.70;99.90
25138;DHT22;13112;50.986;4.354;2023-02-27T00:42:43;1.70;99.90
25138;DHT22;13112;50.986;4.354;2023-02-27T00:45:11;1.60;99.90
25138;DHT22;13112;50.986;4.354;2023-02-27T00:47:36;1.50;99.90
25138;DHT22;13112;50.986;4.354;2023-02-27T00:50:03;1.40;99.90
25138;DHT22;13112;50.986;4.354;2023-02-27T00:52:29;1.40;99.90
25138;DHT22;13112;50.986;4.354;2023-02-27T00:54:54;1.40;99.90
25138;DHT22;13112;50.986;4.354;2023-02-27T00:57:20;1.40;99.90
25138;DHT22;13112;50.986;4.354;2023-02-27T00:59:46;1.30;99.90
25138;DHT22;13112;50.986;4.354;2023-02-27T01:02:12;1.40;99.90
25138;DHT22;13112;50.986;4.354;2023-02-27T01:04:38;1.30;99.90
25138;DHT22;13112;50.986;4.354;2023-02-27T01:07:04;1.40;99.90
25138;DHT22;13112;50.986;4.354;2023-02-27T01:09:30;1.40;99.90
25138;DHT22;13112;50.986;4.354;2023-02-27T01:11:55;1.40;99.90
25138;DHT22;13112;50.986;4.354;2023-02-27T01:14:22;1.40;99.90
25138;DHT22;13112;50.986;4.354;2023-02-27T01:16:48;1.50;99.90
25138;DHT22;13112;50.986;4.354;2023-02-27T01:19:14;1.50;99.90
25138;DHT22;13112;50.986;4.354;2023-02-27T01:21:40;1.40;99.90
25138;DHT22;13112;50.986;4.354;2023-02-27T01:24:07;1.50;99.90
25138;DHT22;13112;50.986;4.354;2023-02-27T01:26:33;1.40;99.90
25138;DHT22;13112;50.986;4.354;2023-02-27T01:28:59;1.40;99.90
25138;DHT22;13112;50.986;4.354;2023-02-27T01:31:24;1.40;99.90
25138;DHT22;13112;50.986;4.354;2023-02-27T01:33:50;1.30;99.90
25138;DHT22;13112;50.986;4.354;2023-02-27T01:36:16;1.30;99.90
25138;DHT22;13112;50.986;4.354;2023-02-27T01:38:41;1.30;99.90
25138;DHT22;13112;50.986;4.354;2023-02-27T01:41:07;1.30;99.90
25138;DHT22;13112;50.986;4.354;2023-02-27T01:43:33;1.30;99.90
25138;DHT22;13112;50.986;4.354;2023-02-27T01:45:59;1.20;99.90
25138;DHT22;13112;50.986;4.354;2023-02-27T01:48:34;1.20;99.90
25138;DHT22;13112;50.986;4.354;2023-02-27T01:51:00;1.20;99.90
25138;DHT22;13112;50.986;4.354;2023-02-27T01:53:29;1.10;99.90
25138;DHT22;13112;50.986;4.354;2023-02-27T01:56:04;1.10;99.90
25138;DHT22;13112;50.986;4.354;2023-02-27T01:58:30;1.10;99.90
25138;DHT22;13112;50.986;4.354;2023-02-27T02:00:56;1.10;99.90
25138;DHT22;13112;50.986;4.354;2023-02-27T02:06:03;1.10;99.90
25138;DHT22;13112;50.986;4.354;2023-02-27T02:08:36;1.10;99.90
25138;DHT22;13112;50.986;4.354;2023-02-27T02:11:02;1.10;99.90
25138;DHT22;13112;50.986;4.354;2023-02-27T02:13:29;1.10;99.90
25138;DHT22;13112;50.986;4.354;2023-02-27T02:16:21;1.00;99.90
25138;DHT22;13112;50.986;4.354;2023-02-27T02:33:14;0.90;99.90
25138;DHT22;13112;50.986;4.354;2023-02-27T02:35:36;0.90;99.90
25138;DHT22;13112;50.986;4.354;2023-02-27T02:43:49;0.80;99.90
25138;DHT22;13112;50.986;4.354;2023-02-27T02:46:15;0.90;99.90
25138;DHT22;13112;50.986;4.354;2023-02-27T02:48:51;0.80;99.90
25138;DHT22;13112;50.986;4.354;2023-02-27T02:51:38;0.70;99.90
25138;DHT22;13112;50.986;4.354;2023-02-27T02:54:15;0.70;99.90
25138;DHT22;13112;50.986;4.354;2023-02-27T02:56:58;0.70;99.90
25138;DHT22;13112;50.986;4.354;2023-02-27T03:03:18;0.70;99.90
25138;DHT22;13112;50.986;4.354;2023-02-27T03:06:06;0.80;99.90
25138;DHT22;13112;50.986;4.354;2023-02-27T03:08:38;0.80;99.90
25138;DHT22;13112;50.986;4.354;2023-02-27T03:11:07;0.70;99.90
25138;DHT22;13112;50.986;4.354;2023-02-27T03:13:49;0.80;99.90
25138;DHT22;13112;50.986;4.354;2023-02-27T03:16:42;0.80;99.90
25138;DHT22;13112;50.986;4.354;2023-02-27T03:24:23;0.70;99.90
25138;DHT22;13112;50.986;4.354;2023-02-27T03:26:52;0.70;99.90
25138;DHT22;13112;50.986;4.354;2023-02-27T03:29:25;0.70;99.90
25138;DHT22;13112;50.986;4.354;2023-02-27T03:32:02;0.70;99.90
25138;DHT22;13112;50.986;4.354;2023-02-27T03:34:33;0.70;99.90
25138;DHT22;13112;50.986;4.354;2023-02-27T03:40:25;0.60;99.90
25138;DHT22;13112;50.986;4.354;2023-02-27T03:46:10;0.70;99.90
25138;DHT22;13112;50.986;4.354;2023-02-27T03:48:11;0.70;99.90
25138;DHT22;13112;50.986;4.354;2023-02-27T03:50:37;0.60;99.90
25138;DHT22;13112;50.986;4.354;2023-02-27T03:53:07;0.60;99.90
25138;DHT22;13112;50.986;4.354;2023-02-27T03:55:39;0.50;99.90
25138;DHT22;13112;50.986;4.354;2023-02-27T03:58:05;0.50;99.90
25138;DHT22;13112;50.986;4.354;2023-02-27T04:00:31;0.50;99.90
25138;DHT22;13112;50.986;4.354;2023-02-27T04:02:59;0.60;99.90
25138;DHT22;13112;50.986;4.354;2023-02-27T04:05:26;0.60;99.90
25138;DHT22;13112;50.986;4.354;2023-02-27T04:27:39;0.40;99.90
25138;DHT22;13112;50.986;4.354;2023-02-27T04:30:26;0.30;99.90
25138;DHT22;13112;50.986;4.354;2023-02-27T04:33:06;0.30;99.90
25138;DHT22;13112;50.986;4.354;2023-02-27T04:35:42;0.30;99.90
25138;DHT22;13112;50.986;4.354;2023-02-27T04:38:19;0.30;99.90
25138;DHT22;13112;50.986;4.354;2023-02-27T04:40:53;0.30;99.90
25138;DHT22;13112;50.986;4.354;2023-02-27T04:43:21;0.30;99.90
25138;DHT22;13112;50.986;4.354;2023-02-27T04:45:49;0.40;99.90
25138;DHT22;13112;50.986;4.354;2023-02-27T04:48:23;0.30;99.90
25138;DHT22;13112;50.986;4.354;2023-02-27T04:51:01;0.40;99.90
25138;DHT22;13112;50.986;4.354;2023-02-27T04:56:03;0.20;99.90
25138;DHT22;13112;50.986;4.354;2023-02-27T04:58:40;0.20;99.90
25138;DHT22;13112;50.986;4.354;2023-02-27T05:01:51;0.10;99.90
25138;DHT22;13112;50.986;4.354;2023-02-27T05:04:20;0.20;99.90
25138;DHT22;13112;50.986;4.354;2023-02-27T05:06:49;0.20;99.90
25138;DHT22;13112;50.986;4.354;2023-02-27T05:09:48;0.20;99.90
25138;DHT22;13112;50.986;4.354;2023-02-27T05:12:55;0.10;99.90
25138;DHT22;13112;50.986;4.354;2023-02-27T05:15:35;0.00;99.90
25138;DHT22;13112;50.986;4.354;2023-02-27T05:18:08;0.00;99.90
25138;DHT22;13112;50.986;4.354;2023-02-27T05:20:49;0.10;99.90
25138;DHT22;13112;50.986;4.354;2023-02-27T05:23:45;0.20;99.90
25138;DHT22;13112;50.986;4.354;2023-02-27T05:26:53;0.10;99.90
25138;DHT22;13112;50.986;4.354;2023-02-27T05:29:47;0.10;99.90
25138;DHT22;13112;50.986;4.354;2023-02-27T05:32:26;0.10;99.90
25138;DHT22;13112;50.986;4.354;2023-02-27T05:34:56;0.10;99.90
25138;DHT22;13112;50.986;4.354;2023-02-27T05:37:30;0.10;99.90
25138;DHT22;13112;50.986;4.354;2023-02-27T05:39:58;0.10;99.90
25138;DHT22;13112;50.986;4.354;2023-02-27T05:42:32;0.10;99.90
25138;DHT22;13112;50.986;4.354;2023-02-27T05:45:08;0.00;99.90
25138;DHT22;13112;50.986;4.354;2023-02-27T05:47:40;0.00;99.90
25138;DHT22;13112;50.986;4.354;2023-02-27T05:50:19;0.00;99.90
25138;DHT22;13112;50.986;4.354;2023-02-27T05:52:48;0.10;99.90
25138;DHT22;13112;50.986;4.354;2023-02-27T05:55:23;0.10;99.90
25138;DHT22;13112;50.986;4.354;2023-02-27T05:57:58;0.00;99.90
25138;DHT22;13112;50.986;4.354;2023-02-27T06:00:34;0.00;99.90
25138;DHT22;13112;50.986;4.354;2023-02-27T06:03:01;0.00;99.90
25138;DHT22;13112;50.986;4.354;2023-02-27T06:05:27;-0.10;99.90
25138;DHT22;13112;50.986;4.354;2023-02-27T06:07:53;0.00;99.90
25138;DHT22;13112;50.986;4.354;2023-02-27T06:10:20;0.00;99.90
25138;DHT22;13112;50.986;4.354;2023-02-27T06:12:46;0.00;99.90
25138;DHT22;13112;50.986;4.354;2023-02-27T06:15:12;-0.10;99.90
25138;DHT22;13112;50.986;4.354;2023-02-27T06:17:38;0.10;99.90
25138;DHT22;13112;50.986;4.354;2023-02-27T06:20:05;0.00;99.90
25138;DHT22;13112;50.986;4.354;2023-02-27T06:22:32;0.00;99.90
25138;DHT22;13112;50.986;4.354;2023-02-27T06:24:58;0.00;99.90
25138;DHT22;13112;50.986;4.354;2023-02-27T06:27:24;0.00;99.90
25138;DHT22;13112;50.986;4.354;2023-02-27T06:29:51;0.00;99.90
25138;DHT22;13112;50.986;4.354;2023-02-27T06:32:18;0.10;99.90
25138;DHT22;13112;50.986;4.354;2023-02-27T06:34:44;0.00;99.90
25138;DHT22;13112;50.986;4.354;2023-02-27T06:37:09;0.00;99.90
25138;DHT22;13112;50.986;4.354;2023-02-27T06:39:35;-0.10;99.90
25138;DHT22;13112;50.986;4.354;2023-02-27T06:42:01;-0.10;99.90
25138;DHT22;13112;50.986;4.354;2023-02-27T06:44:26;-0.10;99.90
25138;DHT22;13112;50.986;4.354;2023-02-27T06:46:52;-0.10;99.90
25138;DHT22;13112;50.986;4.354;2023-02-27T06:49:18;-0.10;99.90
25138;DHT22;13112;50.986;4.354;2023-02-27T06:51:43;0.00;99.90
25138;DHT22;13112;50.986;4.354;2023-02-27T06:54:09;0.10;99.90
25138;DHT22;13112;50.986;4.354;2023-02-27T06:56:35;0.10;99.90
25138;DHT22;13112;50.986;4.354;2023-02-27T06:59:00;0.10;99.90
25138;DHT22;13112;50.986;4.354;2023-02-27T07:01:26;0.20;99.90
25138;DHT22;13112;50.986;4.354;2023-02-27T07:03:52;0.20;99.90
25138;DHT22;13112;50.986;4.354;2023-02-27T07:06:17;0.20;99.90
25138;DHT22;13112;50.986;4.354;2023-02-27T07:08:43;0.30;99.90
25138;DHT22;13112;50.986;4.354;2023-02-27T07:11:09;0.30;99.90
25138;DHT22;13112;50.986;4.354;2023-02-27T07:13:34;0.50;99.90
25138;DHT22;13112;50.986;4.354;2023-02-27T07:16:00;0.70;99.90
25138;DHT22;13112;50.986;4.354;2023-02-27T07:18:26;1.50;99.90
25138;DHT22;13112;50.986;4.354;2023-02-27T07:20:52;2.50;99.90
25138;DHT22;13112;50.986;4.354;2023-02-27T07:23:20;3.60;99.90
25138;DHT22;13112;50.986;4.354;2023-02-27T07:25:46;4.60;99.90
25138;DHT22;13112;50.986;4.354;2023-02-27T07:28:12;5.60;99.90
25138;DHT22;13112;50.986;4.354;2023-02-27T07:30:38;6.30;99.90
25138;DHT22;13112;50.986;4.354;2023-02-27T07:33:04;6.90;99.90
25138;DHT22;13112;50.986;4.354;2023-02-27T07:35:30;7.70;99.90
25138;DHT22;13112;50.986;4.354;2023-02-27T07:37:56;8.20;99.90
25138;DHT22;13112;50.986;4.354;2023-02-27T07:40:22;8.40;99.90
25138;DHT22;13112;50.986;4.354;2023-02-27T07:42:48;8.80;99.90
25138;DHT22;13112;50.986;4.354;2023-02-27T07:45:14;9.30;99.90
25138;DHT22;13112;50.986;4.354;2023-02-27T07:47:39;9.80;99.90
25138;DHT22;13112;50.986;4.354;2023-02-27T07:50:05;10.40;99.90
25138;DHT22;13112;50.986;4.354;2023-02-27T07:52:31;11.00;99.90
25138;DHT22;13112;50.986;4.354;2023-02-27T07:54:57;11.90;99.90
25138;DHT22;13112;50.986;4.354;2023-02-27T07:57:23;12.50;99.90
25138;DHT22;13112;50.986;4.354;2023-02-27T07:59:48;13.00;99.90
25138;DHT22;13112;50.986;4.354;2023-02-27T08:02:14;13.50;99.40
25138;DHT22;13112;50.986;4.354;2023-02-27T08:04:40;13.80;97.80
25138;DHT22;13112;50.986;4.354;2023-02-27T08:07:05;13.70;97.50
25138;DHT22;13112;50.986;4.354;2023-02-27T08:09:31;13.40;96.30
25138;DHT22;13112;50.986;4.354;2023-02-27T08:11:57;13.20;95.90
25138;DHT22;13112;50.986;4.354;2023-02-27T08:14:23;13.60;95.50
25138;DHT22;13112;50.986;4.354;2023-02-27T08:16:49;13.60;94.80
25138;DHT22;13112;50.986;4.354;2023-02-27T08:19:17;13.80;95.50
25138;DHT22;13112;50.986;4.354;2023-02-27T08:21:43;14.30;94.40
25138;DHT22;13112;50.986;4.354;2023-02-27T08:24:09;14.70;93.70
25138;DHT22;13112;50.986;4.354;2023-02-27T08:26:35;15.00;93.60
25138;DHT22;13112;50.986;4.354;2023-02-27T08:29:00;15.00;92.20
25138;DHT22;13112;50.986;4.354;2023-02-27T08:31:26;13.80;92.20
25138;DHT22;13112;50.986;4.354;2023-02-27T08:33:52;12.30;93.50
25138;DHT22;13112;50.986;4.354;2023-02-27T08:36:17;11.20;94.70
25138;DHT22;13112;50.986;4.354;2023-02-27T08:38:43;10.30;96.20
25138;DHT22;13112;50.986;4.354;2023-02-27T08:41:09;9.30;97.90
25138;DHT22;13112;50.986;4.354;2023-02-27T08:43:35;8.20;99.90
25138;DHT22;13112;50.986;4.354;2023-02-27T08:46:00;7.30;99.90
25138;DHT22;13112;50.986;4.354;2023-02-27T08:48:26;7.00;99.90
25138;DHT22;13112;50.986;4.354;2023-02-27T08:50:52;6.60;99.90
25138;DHT22;13112;50.986;4.354;2023-02-27T08:53:18;6.90;99.90
25138;DHT22;13112;50.986;4.354;2023-02-27T08:55:47;8.50;99.90
25138;DHT22;13112;50.986;4.354;2023-02-27T08:58:12;10.30;99.90
25138;DHT22;13112;50.986;4.354;2023-02-27T09:00:38;11.20;99.90
25138;DHT22;13112;50.986;4.354;2023-02-27T09:03:04;12.70;99.00
25138;DHT22;13112;50.986;4.354;2023-02-27T09:05:31;13.80;97.30
25138;DHT22;13112;50.986;4.354;2023-02-27T09:08:00;14.70;95.00
25138;DHT22;13112;50.986;4.354;2023-02-27T09:10:25;15.60;92.80
25138;DHT22;13112;50.986;4.354;2023-02-27T09:12:52;16.40;91.30
25138;DHT22;13112;50.986;4.354;2023-02-27T09:15:18;16.90;91.50
25138;DHT22;13112;50.986;4.354;2023-02-27T09:17:44;17.80;88.10
25138;DHT22;13112;50.986;4.354;2023-02-27T09:20:10;17.80;86.50
25138;DHT22;13112;50.986;4.354;2023-02-27T09:22:37;17.70;86.10
25138;DHT22;13112;50.986;4.354;2023-02-27T09:25:04;18.60;85.00
25138;DHT22;13112;50.986;4.354;2023-02-27T09:27:29;17.90;79.80
25138;DHT22;13112;50.986;4.354;2023-02-27T09:29:55;18.10;81.60
25138;DHT22;13112;50.986;4.354;2023-02-27T09:32:22;18.10;80.80
25138;DHT22;13112;50.986;4.354;2023-02-27T09:34:47;18.60;79.70
25138;DHT22;13112;50.986;4.354;2023-02-27T09:37:13;19.10;78.60
25138;DHT22;13112;50.986;4.354;2023-02-27T09:39:40;19.60;76.70
25138;DHT22;13112;50.986;4.354;2023-02-27T09:42:17;20.10;75.70
25138;DHT22;13112;50.986;4.354;2023-02-27T09:44:56;20.30;73.20
25138;DHT22;13112;50.986;4.354;2023-02-27T09:47:43;19.10;74.30
25138;DHT22;13112;50.986;4.354;2023-02-27T09:52:58;19.00;73.60
25138;DHT22;13112;50.986;4.354;2023-02-27T09:55:30;19.30;74.40
25138;DHT22;13112;50.986;4.354;2023-02-27T10:00:47;17.00;72.70
25138;DHT22;13112;50.986;4.354;2023-02-27T10:06:24;18.30;73.20
25138;DHT22;13112;50.986;4.354;2023-02-27T10:09:27;19.40;71.80
25138;DHT22;13112;50.986;4.354;2023-02-27T10:12:17;19.00;70.40
25138;DHT22;13112;50.986;4.354;2023-02-27T10:14:57;19.60;69.10
25138;DHT22;13112;50.986;4.354;2023-02-27T10:17:30;19.30;67.30
25138;DHT22;13112;50.986;4.354;2023-02-27T10:19:57;18.20;69.40
25138;DHT22;13112;50.986;4.354;2023-02-27T10:22:32;17.60;71.10
25138;DHT22;13112;50.986;4.354;2023-02-27T10:25:04;16.90;72.20
25138;DHT22;13112;50.986;4.354;2023-02-27T10:27:31;16.40;73.00
25138;DHT22;13112;50.986;4.354;2023-02-27T10:30:27;15.70;74.40
25138;DHT22;13112;50.986;4.354;2023-02-27T10:33:09;14.50;75.90
25138;DHT22;13112;50.986;4.354;2023-02-27T10:35:42;12.30;80.40
25138;DHT22;13112;50.986;4.354;2023-02-27T10:38:19;12.50;84.30
25138;DHT22;13112;50.986;4.354;2023-02-27T10:40:47;13.90;80.20
25138;DHT22;13112;50.986;4.354;2023-02-27T10:43:15;14.40;79.30
25138;DHT22;13112;50.986;4.354;2023-02-27T10:45:42;15.00;76.10
25138;DHT22;13112;50.986;4.354;2023-02-27T10:48:09;15.40;76.30
25138;DHT22;13112;50.986;4.354;2023-02-27T10:50:38;16.00;73.70
25138;DHT22;13112;50.986;4.354;2023-02-27T10:53:15;15.40;73.40
25138;DHT22;13112;50.986;4.354;2023-02-27T10:55:44;16.00;73.70
25138;DHT22;13112;50.986;4.354;2023-02-27T10:58:18;15.90;75.10
25138;DHT22;13112;50.986;4.354;2023-02-27T11:00:55;16.60;71.90
25138;DHT22;13112;50.986;4.354;2023-02-27T11:03:34;17.60;68.70
25138;DHT22;13112;50.986;4.354;2023-02-27T11:06:04;16.40;70.30
25138;DHT22;13112;50.986;4.354;2023-02-27T11:08:32;16.50;73.60
25138;DHT22;13112;50.986;4.354;2023-02-27T11:11:02;16.10;69.50
25138;DHT22;13112;50.986;4.354;2023-02-27T11:13:36;16.20;72.10
25138;DHT22;13112;50.986;4.354;2023-02-27T11:16:17;16.20;70.80
25138;DHT22;13112;50.986;4.354;2023-02-27T11:18:48;15.40;71.30
25138;DHT22;13112;50.986;4.354;2023-02-27T11:21:28;15.40;72.40
25138;DHT22;13112;50.986;4.354;2023-02-27T11:24:01;15.40;71.40
25138;DHT22;13112;50.986;4.354;2023-02-27T11:26:31;16.20;71.20
25138;DHT22;13112;50.986;4.354;2023-02-27T11:29:13;16.40;69.10
25138;DHT22;13112;50.986;4.354;2023-02-27T11:31:45;16.80;68.90
25138;DHT22;13112;50.986;4.354;2023-02-27T11:34:26;15.70;69.30
25138;DHT22;13112;50.986;4.354;2023-02-27T11:36:59;15.60;72.40
25138;DHT22;13112;50.986;4.354;2023-02-27T11:39:26;16.10;69.30
25138;DHT22;13112;50.986;4.354;2023-02-27T11:41:56;16.50;68.20
25138;DHT22;13112;50.986;4.354;2023-02-27T11:44:25;15.60;70.40
25138;DHT22;13112;50.986;4.354;2023-02-27T11:47:18;16.30;72.70
25138;DHT22;13112;50.986;4.354;2023-02-27T11:55:01;18.70;66.90
25138;DHT22;13112;50.986;4.354;2023-02-27T11:57:37;17.10;66.10
25138;DHT22;13112;50.986;4.354;2023-02-27T12:00:26;16.50;67.70
25138;DHT22;13112;50.986;4.354;2023-02-27T12:05:29;18.60;66.70
25138;DHT22;13112;50.986;4.354;2023-02-27T12:10:49;19.50;63.50
25138;DHT22;13112;50.986;4.354;2023-02-27T12:13:23;17.30;66.40
25138;DHT22;13112;50.986;4.354;2023-02-27T12:16:32;16.70;68.00
25138;DHT22;13112;50.986;4.354;2023-02-27T12:18:50;18.70;68.10
25138;DHT22;13112;50.986;4.354;2023-02-27T12:21:21;20.30;65.30
25138;DHT22;13112;50.986;4.354;2023-02-27T12:26:32;21.20;61.60
25138;DHT22;13112;50.986;4.354;2023-02-27T12:31:56;21.00;60.50
25138;DHT22;13112;50.986;4.354;2023-02-27T12:34:43;20.90;61.60
25138;DHT22;13112;50.986;4.354;2023-02-27T12:37:18;21.30;60.00
25138;DHT22;13112;50.986;4.354;2023-02-27T12:39:46;20.40;60.30
25138;DHT22;13112;50.986;4.354;2023-02-27T12:59:52;18.50;61.80
25138;DHT22;13112;50.986;4.354;2023-02-27T13:02:46;18.50;60.40
25138;DHT22;13112;50.986;4.354;2023-02-27T13:10:33;18.40;59.70
25138;DHT22;13112;50.986;4.354;2023-02-27T13:13:19;17.80;62.10
25138;DHT22;13112;50.986;4.354;2023-02-27T13:16:05;18.60;59.00
25138;DHT22;13112;50.986;4.354;2023-02-27T13:18:52;18.30;59.00
25138;DHT22;13112;50.986;4.354;2023-02-27T13:27:13;16.00;63.80
25138;DHT22;13112;50.986;4.354;2023-02-27T13:29:47;16.10;64.20
25138;DHT22;13112;50.986;4.354;2023-02-27T13:32:37;15.60;65.00
25138;DHT22;13112;50.986;4.354;2023-02-27T13:37:58;16.30;65.20
25138;DHT22;13112;50.986;4.354;2023-02-27T13:42:57;17.20;65.20
25138;DHT22;13112;50.986;4.354;2023-02-27T13:45:46;17.20;63.10
25138;DHT22;13112;50.986;4.354;2023-02-27T13:50:59;15.80;66.80
25138;DHT22;13112;50.986;4.354;2023-02-27T13:53:27;16.80;65.80
25138;DHT22;13112;50.986;4.354;2023-02-27T13:56:17;16.20;64.80
25138;DHT22;13112;50.986;4.354;2023-02-27T13:58:44;15.70;67.10
25138;DHT22;13112;50.986;4.354;2023-02-27T14:01:16;14.90;67.50
25138;DHT22;13112;50.986;4.354;2023-02-27T14:03:52;13.90;69.90
25138;DHT22;13112;50.986;4.354;2023-02-27T14:06:19;12.60;72.60
25138;DHT22;13112;50.986;4.354;2023-02-27T14:08:48;11.70;73.80
25138;DHT22;13112;50.986;4.354;2023-02-27T14:24:34;13.20;69.90
25138;DHT22;13112;50.986;4.354;2023-02-27T14:27:13;11.70;74.40
25138;DHT22;13112;50.986;4.354;2023-02-27T14:29:44;10.70;76.80
25138;DHT22;13112;50.986;4.354;2023-02-27T14:32:20;9.70;80.20
25138;DHT22;13112;50.986;4.354;2023-02-27T14:34:47;9.20;83.20
25138;DHT22;13112;50.986;4.354;2023-02-27T14:37:20;9.10;84.90
25138;DHT22;13112;50.986;4.354;2023-02-27T14:39:50;9.30;86.40
25138;DHT22;13112;50.986;4.354;2023-02-27T14:44:54;8.80;84.30
25138;DHT22;13112;50.986;4.354;2023-02-27T14:47:34;8.70;85.60
25138;DHT22;13112;50.986;4.354;2023-02-27T14:50:06;8.90;87.10
25138;DHT22;13112;50.986;4.354;2023-02-27T14:52:41;8.90;87.40
25138;DHT22;13112;50.986;4.354;2023-02-27T14:55:29;8.80;87.50
25138;DHT22;13112;50.986;4.354;2023-02-27T15:03:46;9.50;88.20
25138;DHT22;13112;50.986;4.354;2023-02-27T15:06:20;9.80;86.60
25138;DHT22;13112;50.986;4.354;2023-02-27T15:08:49;9.40;84.70
25138;DHT22;13112;50.986;4.354;2023-02-27T15:11:19;9.00;87.40
25138;DHT22;13112;50.986;4.354;2023-02-27T15:13:46;9.40;87.10
25138;DHT22;13112;50.986;4.354;2023-02-27T15:19:10;11.00;83.00
25138;DHT22;13112;50.986;4.354;2023-02-27T15:21:48;11.60;79.40
25138;DHT22;13112;50.986;4.354;2023-02-27T15:24:29;12.00;79.30
25138;DHT22;13112;50.986;4.354;2023-02-27T15:27:04;12.70;75.90
25138;DHT22;13112;50.986;4.354;2023-02-27T15:29:36;12.40;77.50
25138;DHT22;13112;50.986;4.354;2023-02-27T15:32:03;12.10;77.60
25138;DHT22;13112;50.986;4.354;2023-02-27T15:34:29;11.90;77.40
25138;DHT22;13112;50.986;4.354;2023-02-27T15:36:57;10.90;79.10
25138;DHT22;13112;50.986;4.354;2023-02-27T15:39:25;9.90;83.10
25138;DHT22;13112;50.986;4.354;2023-02-27T15:42:00;9.40;85.50
25138;DHT22;13112;50.986;4.354;2023-02-27T15:44:49;9.00;87.70
25138;DHT22;13112;50.986;4.354;2023-02-27T15:47:49;8.80;88.70
25138;DHT22;13112;50.986;4.354;2023-02-27T15:50:09;8.70;88.30
25138;DHT22;13112;50.986;4.354;2023-02-27T15:52:49;8.60;89.60
25138;DHT22;13112;50.986;4.354;2023-02-27T15:55:22;8.40;89.10
25138;DHT22;13112;50.986;4.354;2023-02-27T15:57:49;8.30;90.20
25138;DHT22;13112;50.986;4.354;2023-02-27T16:00:17;8.00;90.40
25138;DHT22;13112;50.986;4.354;2023-02-27T16:02:52;7.80;91.10
25138;DHT22;13112;50.986;4.354;2023-02-27T16:05:33;8.10;91.70
25138;DHT22;13112;50.986;4.354;2023-02-27T16:08:00;7.90;91.00
25138;DHT22;13112;50.986;4.354;2023-02-27T16:10:29;7.80;91.30
25138;DHT22;13112;50.986;4.354;2023-02-27T16:13:36;7.60;92.00
25138;DHT22;13112;50.986;4.354;2023-02-27T16:16:26;7.80;92.50
25138;DHT22;13112;50.986;4.354;2023-02-27T16:18:57;7.60;92.10
25138;DHT22;13112;50.986;4.354;2023-02-27T16:21:28;7.50;91.60
25138;DHT22;13112;50.986;4.354;2023-02-27T16:24:17;7.30;91.80
25138;DHT22;13112;50.986;4.354;2023-02-27T16:26:51;7.20;91.80
25138;DHT22;13112;50.986;4.354;2023-02-27T16:29:20;7.00;91.80
25138;DHT22;13112;50.986;4.354;2023-02-27T16:31:50;7.00;92.50
25138;DHT22;13112;50.986;4.354;2023-02-27T16:34:35;7.10;93.00
25138;DHT22;13112;50.986;4.354;2023-02-27T16:37:05;7.10;92.60
25138;DHT22;13112;50.986;4.354;2023-02-27T16:39:32;7.10;92.50
25138;DHT22;13112;50.986;4.354;2023-02-27T16:41:59;7.10;93.10
25138;DHT22;13112;50.986;4.354;2023-02-27T16:44:25;7.00;93.00
25138;DHT22;13112;50.986;4.354;2023-02-27T16:46:55;6.90;93.10
25138;DHT22;13112;50.986;4.354;2023-02-27T16:49:26;6.90;93.70
25138;DHT22;13112;50.986;4.354;2023-02-27T16:51:52;7.00;93.50
25138;DHT22;13112;50.986;4.354;2023-02-27T16:54:18;6.80;94.00
25138;DHT22;13112;50.986;4.354;2023-02-27T16:56:45;6.80;94.40
25138;DHT22;13112;50.986;4.354;2023-02-27T16:59:33;6.70;94.70
25138;DHT22;13112;50.986;4.354;2023-02-27T17:02:01;6.70;94.60
25138;DHT22;13112;50.986;4.354;2023-02-27T17:04:28;6.60;95.00
25138;DHT22;13112;50.986;4.354;2023-02-27T17:06:55;6.60;95.00
25138;DHT22;13112;50.986;4.354;2023-02-27T17:09:21;6.50;95.10
25138;DHT22;13112;50.986;4.354;2023-02-27T17:11:47;6.30;95.40
25138;DHT22;13112;50.986;4.354;2023-02-27T17:14:13;6.30;96.00
25138;DHT22;13112;50.986;4.354;2023-02-27T17:16:39;6.20;96.50
25138;DHT22;13112;50.986;4.354;2023-02-27T17:19:05;6.20;96.20
25138;DHT22;13112;50.986;4.354;2023-02-27T17:21:31;6.20;96.50
25138;DHT22;13112;50.986;4.354;2023-02-27T17:23:57;6.10;96.70
25138;DHT22;13112;50.986;4.354;2023-02-27T17:26:22;5.90;97.20
25138;DHT22;13112;50.986;4.354;2023-02-27T17:28:48;5.90;97.40
25138;DHT22;13112;50.986;4.354;2023-02-27T17:31:14;5.90;97.60
25138;DHT22;13112;50.986;4.354;2023-02-27T17:33:41;5.80;97.90
25138;DHT22;13112;50.986;4.354;2023-02-27T17:36:08;5.70;98.50
25138;DHT22;13112;50.986;4.354;2023-02-27T17:38:34;5.80;99.20
25138;DHT22;13112;50.986;4.354;2023-02-27T17:41:08;5.80;98.80
25138;DHT22;13112;50.986;4.354;2023-02-27T17:43:34;5.70;99.00
25138;DHT22;13112;50.986;4.354;2023-02-27T17:46:00;5.70;99.20
25138;DHT22;13112;50.986;4.354;2023-02-27T17:48:26;5.70;99.30
25138;DHT22;13112;50.986;4.354;2023-02-27T17:50:52;5.70;99.70
25138;DHT22;13112;50.986;4.354;2023-02-27T17:53:17;5.70;99.50
25138;DHT22;13112;50.986;4.354;2023-02-27T17:55:43;5.70;99.90
25138;DHT22;13112;50.986;4.354;2023-02-27T17:58:09;5.60;99.80
25138;DHT22;13112;50.986;4.354;2023-02-27T18:00:34;5.50;99.90
25138;DHT22;13112;50.986;4.354;2023-02-27T18:03:00;5.50;99.90
25138;DHT22;13112;50.986;4.354;2023-02-27T18:05:26;5.50;99.90
25138;DHT22;13112;50.986;4.354;2023-02-27T18:07:52;5.40;99.90
25138;DHT22;13112;50.986;4.354;2023-02-27T18:10:17;5.40;99.90
25138;DHT22;13112;50.986;4.354;2023-02-27T18:12:43;5.50;99.90
25138;DHT22;13112;50.986;4.354;2023-02-27T18:15:09;5.50;99.90
25138;DHT22;13112;50.986;4.354;2023-02-27T18:17:35;5.40;99.90
25138;DHT22;13112;50.986;4.354;2023-02-27T18:20:01;5.30;99.90
25138;DHT22;13112;50.986;4.354;2023-02-27T18:22:27;5.30;99.90
25138;DHT22;13112;50.986;4.354;2023-02-27T18:24:54;5.30;99.90
25138;DHT22;13112;50.986;4.354;2023-02-27T18:27:21;5.20;99.90
25138;DHT22;13112;50.986;4.354;2023-02-27T18:29:48;5.30;99.90